This is the latest recevied weather packets stored in our database for station/object KI2K. If no packets are shown the sender has not sent any weather packets the latest 10 day(s).
| Time | Temp. | Humidity | Pressure | Rain* | Wind** | Luminosity | Snow |
|---|---|---|---|---|---|---|---|
| 1777822641 | 14.44° C | 51% | 1017.5 hPa | 0 mm | - | 792 W/m² | - |
| 1777822338 | 14.44° C | 52% | 1017.7 hPa | 0 mm | - | 820 W/m² | - |
| 1777822036 | 14.44° C | 52% | 1017.7 hPa | 0 mm | - | 791 W/m² | - |
| 1777821734 | 14.44° C | 52% | 1017.9 hPa | 0 mm | - | 788 W/m² | - |
| 1777821430 | 13.89° C | 53% | 1017.9 hPa | 0 mm | - | 741 W/m² | - |
| 1777821128 | 15° C | 50% | 1017.8 hPa | 0 mm | - | 735 W/m² | - |
| 1777820824 | 13.89° C | 53% | 1017.8 hPa | 0 mm | - | 733 W/m² | - |
| 1777820521 | 13.89° C | 51% | 1017.9 hPa | 0 mm | - | 695 W/m² | - |
| 1777820217 | 13.33° C | 52% | 1017.7 hPa | 0 mm | - | 681 W/m² | - |
| 1777819915 | 13.89° C | 51% | 1017.9 hPa | 0 mm | - | 677 W/m² | - |
| 1777819612 | 13.33° C | 53% | 1017.8 hPa | 0 mm | - | 678 W/m² | - |
| 1777819310 | 13.33° C | 52% | 1017.6 hPa | 0 mm | - | 671 W/m² | - |
| 1777819006 | 13.33° C | 53% | 1017.8 hPa | 0 mm | - | 661 W/m² | - |
| 1777818703 | 13.33° C | 53% | 1017.6 hPa | 0 mm | - | 619 W/m² | - |
| 1777818400 | 12.78° C | 54% | 1018.1 hPa | 0 mm | - | 633 W/m² | - |
| 1777818097 | 12.78° C | 54% | 1017.7 hPa | 0 mm | - | 599 W/m² | - |
| 1777817793 | 12.22° C | 56% | 1018.4 hPa | 0 mm | - | 548 W/m² | - |
| 1777817491 | 12.78° C | 54% | 1018 hPa | 0 mm | - | 548 W/m² | - |
| 1777817187 | 11.67° C | 56% | 1018.1 hPa | 0 mm | - | 532 W/m² | - |
| 1777816885 | 11.67° C | 57% | 1018.4 hPa | 0 mm | - | 501 W/m² | - |
| 1777816581 | 11.67° C | 57% | 1018 hPa | 0 mm | - | 494 W/m² | - |
| 1777816278 | 11.11° C | 56% | 1018.2 hPa | 0 mm | - | 487 W/m² | - |
| 1777815976 | 11.11° C | 56% | 1018 hPa | 0 mm | - | 454 W/m² | - |
| 1777815673 | 11.11° C | 57% | 1018.4 hPa | 0 mm | - | 432 W/m² | - |
| 1777815370 | 11.11° C | 58% | 1018 hPa | 0 mm | - | 381 W/m² | - |
* Rain latest hour (hover to see other rain measurements)
** Current wind speed in m/s (hover to see current wind gust speed)